Time;durP1;ratioP1;P1;durP2;ratioP2;P2;SDS_P1;SDS_P2;PMS_P1;PMS_P2;Temp;Humidity;BMP_temperature;BMP_pressure;BME280_temperature;BME280_humidity;BME280_pressure;Samples;Min_cycle;Max_cycle;Signal;HPM_P1;HPM_P2
2022/08/27 00:00:15;;;;;;;;;;;23.10;56.30;;;;;;4995061;28;20375;-77
2022/08/27 00:02:41;;;;;;;;;;;23.10;56.40;;;;;;5012582;28;19912;-78
2022/08/27 00:05:07;;;;;;;;;;;23.00;56.40;;;;;;5012649;28;19917;-78
2022/08/27 00:07:32;;;;;;;;;;;23.00;56.50;;;;;;4998071;28;20279;-78
2022/08/27 00:09:58;;;;;;;;;;;23.00;56.60;;;;;;5013110;28;19906;-79
2022/08/27 00:12:24;;;;;;;;;;;;;;;;;;5013170;28;19905;-78
2022/08/27 00:14:50;;;;;;;;;;;22.90;56.50;;;;;;5015099;28;19913;-78
2022/08/27 00:17:16;;;;;;;;;;;22.90;57.10;;;;;;5009752;28;19909;-78
2022/08/27 00:19:41;;;;;;;;;;;22.90;56.70;;;;;;5016351;28;19913;-78
2022/08/27 00:22:08;;;;;;;;;;;22.90;56.70;;;;;;5016370;28;19906;-78
2022/08/27 00:24:34;;;;;;;;;;;23.00;56.70;;;;;;5015761;28;19909;-79
2022/08/27 00:27:01;;;;;;;;;;;22.90;56.80;;;;;;5016420;28;20402;-79
2022/08/27 00:29:27;;;;;;;;;;;22.90;56.90;;;;;;5015980;28;19910;-79
2022/08/27 00:31:53;;;;;;;;;;;22.90;57.00;;;;;;5016021;28;20337;-78
2022/08/27 00:34:21;;;;;;;;;;;22.90;56.80;;;;;;5016018;28;19912;-79
2022/08/27 00:36:46;;;;;;;;;;;22.90;56.90;;;;;;5015195;28;20425;-78
2022/08/27 00:39:12;;;;;;;;;;;22.80;57.00;;;;;;5015931;28;19956;-78
2022/08/27 00:41:39;;;;;;;;;;;22.80;57.00;;;;;;5015673;28;19905;-77
2022/08/27 00:44:05;;;;;;;;;;;22.70;57.00;;;;;;5016438;28;19905;-79
2022/08/27 00:46:40;;;;;;;;;;;22.70;57.20;;;;;;5015861;28;19996;-78
2022/08/27 00:49:08;;;;;;;;;;;22.60;57.30;;;;;;5016746;28;20263;-78
2022/08/27 00:51:35;;;;;;;;;;;22.60;57.50;;;;;;5017155;28;19909;-78
2022/08/27 00:54:01;;;;;;;;;;;22.60;57.50;;;;;;5020684;28;19913;-78
2022/08/27 00:56:30;;;;;;;;;;;22.60;57.60;;;;;;5016102;28;19916;-79
2022/08/27 00:58:56;;;;;;;;;;;22.60;57.60;;;;;;5016365;28;19975;-79
2022/08/27 01:01:27;;;;;;;;;;;22.50;57.80;;;;;;5016394;28;19992;-78
2022/08/27 01:03:53;;;;;;;;;;;;;;;;;;5016164;28;19906;-78
2022/08/27 01:06:19;;;;;;;;;;;;;;;;;;5016031;28;19905;-78
2022/08/27 01:08:45;;;;;;;;;;;;;;;;;;5015607;28;19912;-80
2022/08/27 01:11:10;;;;;;;;;;;;;;;;;;4997904;28;19960;-79
2022/08/27 01:13:36;;;;;;;;;;;;;;;;;;5018278;28;19910;-78
2022/08/27 01:16:02;;;;;;;;;;;;;;;;;;5017408;28;19952;-78
2022/08/27 01:18:28;;;;;;;;;;;;;;;;;;5015217;28;19905;-79
2022/08/27 01:20:55;;;;;;;;;;;;;;;;;;4988216;28;19933;-80
2022/08/27 01:23:21;;;;;;;;;;;;;;;;;;5005435;28;19905;-80
2022/08/27 01:25:47;;;;;;;;;;;;;;;;;;5013900;28;19996;-79
2022/08/27 01:28:13;;;;;;;;;;;;;;;;;;5014715;28;19948;-79
2022/08/27 01:30:39;;;;;;;;;;;;;;;;;;4993951;28;20377;-79
2022/08/27 01:33:06;;;;;;;;;;;;;;;;;;5014665;28;19910;-78
2022/08/27 01:35:32;;;;;;;;;;;;;;;;;;4997385;28;19909;-79
2022/08/27 01:37:58;;;;;;;;;;;22.50;57.90;;;;;;5015101;28;19905;-78
2022/08/27 01:40:24;;;;;;;;;;;22.20;59.20;;;;;;5015346;28;19913;-81
2022/08/27 01:42:52;;;;;;;;;;;22.20;59.20;;;;;;4997191;28;20020;-78
2022/08/27 01:45:25;;;;;;;;;;;22.20;59.10;;;;;;5013246;28;19905;-80
2022/08/27 01:47:51;;;;;;;;;;;22.20;59.10;;;;;;5015831;28;20382;-77
2022/08/27 01:50:18;;;;;;;;;;;22.20;59.20;;;;;;5018208;28;19936;-79
2022/08/27 01:52:44;;;;;;;;;;;22.10;59.20;;;;;;5015525;28;19909;-79
2022/08/27 01:55:11;;;;;;;;;;;22.10;59.40;;;;;;4997248;28;20268;-78
2022/08/27 01:57:38;;;;;;;;;;;22.10;59.50;;;;;;5014907;28;19905;-77
2022/08/27 02:00:07;;;;;;;;;;;22.00;59.50;;;;;;5016032;28;19918;-79
2022/08/27 02:02:32;;;;;;;;;;;22.00;59.60;;;;;;4998171;28;19953;-80
2022/08/27 02:04:58;;;;;;;;;;;22.00;59.40;;;;;;4997853;28;19905;-78
2022/08/27 02:07:24;;;;;;;;;;;22.10;59.30;;;;;;5015892;28;19951;-76
2022/08/27 02:09:50;;;;;;;;;;;22.10;59.20;;;;;;5015580;28;19917;-79
2022/08/27 02:12:16;;;;;;;;;;;22.10;59.20;;;;;;5014866;28;19913;-81
2022/08/27 02:14:42;;;;;;;;;;;22.00;59.20;;;;;;5004818;28;19905;-79
2022/08/27 02:17:07;;;;;;;;;;;22.00;59.40;;;;;;5014102;28;19925;-79
2022/08/27 02:19:33;;;;;;;;;;;21.90;59.50;;;;;;5014071;28;19913;-79
2022/08/27 02:21:59;;;;;;;;;;;22.00;59.70;;;;;;5014314;28;19910;-79
2022/08/27 02:24:27;;;;;;;;;;;21.90;59.90;;;;;;4995924;28;19905;-81
2022/08/27 02:26:54;;;;;;;;;;;21.80;60.00;;;;;;5013868;28;19905;-79
2022/08/27 02:29:20;;;;;;;;;;;21.80;60.10;;;;;;5014059;28;19917;-79
2022/08/27 02:31:45;;;;;;;;;;;21.80;60.20;;;;;;5013790;28;19905;-79
2022/08/27 02:34:11;;;;;;;;;;;21.80;60.10;;;;;;5013765;28;19915;-79
2022/08/27 02:36:37;;;;;;;;;;;21.80;60.10;;;;;;5013206;28;19905;-78
2022/08/27 02:39:06;;;;;;;;;;;21.80;60.00;;;;;;4996047;28;19920;-79
2022/08/27 02:41:31;;;;;;;;;;;21.90;60.00;;;;;;5013175;28;19964;-79
2022/08/27 02:43:57;;;;;;;;;;;21.90;60.00;;;;;;5013634;28;19936;-80
2022/08/27 02:46:23;;;;;;;;;;;21.90;60.00;;;;;;5013465;28;19987;-79
2022/08/27 02:48:49;;;;;;;;;;;21.90;60.00;;;;;;5013655;28;19932;-81
2022/08/27 02:51:14;;;;;;;;;;;21.90;59.90;;;;;;5013673;28;19905;-79
2022/08/27 02:53:42;;;;;;;;;;;21.90;59.90;;;;;;5013282;28;19932;-79
2022/08/27 02:56:09;;;;;;;;;;;21.90;59.90;;;;;;5013403;28;20430;-79
2022/08/27 02:58:35;;;;;;;;;;;21.90;59.90;;;;;;5013122;28;19905;-79
2022/08/27 03:01:01;;;;;;;;;;;21.90;60.00;;;;;;5013408;28;19968;-79
2022/08/27 03:03:30;;;;;;;;;;;21.90;60.10;;;;;;5011633;28;19905;-80
2022/08/27 03:05:57;;;;;;;;;;;22.00;60.10;;;;;;5013253;28;20456;-78
2022/08/27 03:08:26;;;;;;;;;;;22.00;60.10;;;;;;5013444;28;20385;-79
2022/08/27 03:10:52;;;;;;;;;;;22.00;60.20;;;;;;5015774;28;19909;-79
2022/08/27 03:13:18;;;;;;;;;;;22.00;60.20;;;;;;5014051;28;20232;-79
2022/08/27 03:15:44;;;;;;;;;;;22.10;60.10;;;;;;4986130;28;19909;-79
2022/08/27 03:18:18;;;;;;;;;;;22.20;60.10;;;;;;5002340;28;19909;-79
2022/08/27 03:20:58;;;;;;;;;;;22.20;60.00;;;;;;5012880;28;20003;-80
2022/08/27 03:23:25;;;;;;;;;;;22.20;60.20;;;;;;5012788;28;19905;-79
2022/08/27 03:25:52;;;;;;;;;;;22.30;59.90;;;;;;5012844;28;19912;-79
2022/08/27 03:28:19;;;;;;;;;;;22.40;59.80;;;;;;5012921;28;19905;-78
2022/08/27 03:30:50;;;;;;;;;;;22.50;59.60;;;;;;5015324;28;19912;-79
2022/08/27 03:33:16;;;;;;;;;;;22.60;59.60;;;;;;5012233;28;19916;-79
2022/08/27 03:35:42;;;;;;;;;;;22.60;59.60;;;;;;4994720;28;19959;-79
2022/08/27 03:38:08;;;;;;;;;;;22.60;59.50;;;;;;5012667;28;19909;-79
2022/08/27 03:40:33;;;;;;;;;;;22.70;59.60;;;;;;5012825;28;19919;-79
2022/08/27 03:42:59;;;;;;;;;;;22.70;59.70;;;;;;5011832;28;19962;-79
2022/08/27 03:45:26;;;;;;;;;;;22.70;59.50;;;;;;5012864;28;19906;-80
2022/08/27 03:47:52;;;;;;;;;;;22.80;59.90;;;;;;5012799;28;19929;-80
2022/08/27 03:50:17;;;;;;;;;;;22.80;60.20;;;;;;5011840;28;20282;-80
2022/08/27 03:52:43;;;;;;;;;;;22.70;61.30;;;;;;5018657;28;19905;-80
2022/08/27 03:55:09;;;;;;;;;;;22.70;61.60;;;;;;5020685;28;19910;-79
2022/08/27 03:57:35;;;;;;;;;;;22.70;61.50;;;;;;5020566;28;19917;-78
2022/08/27 04:00:00;;;;;;;;;;;22.80;61.30;;;;;;5020398;28;19913;-78
2022/08/27 04:02:26;;;;;;;;;;;22.80;61.50;;;;;;5020372;28;20377;-78
2022/08/27 04:04:52;;;;;;;;;;;22.90;61.50;;;;;;5020339;28;19988;-80
2022/08/27 04:07:18;;;;;;;;;;;23.00;61.40;;;;;;5020013;28;19911;-79
2022/08/27 04:09:44;;;;;;;;;;;23.10;61.10;;;;;;5021822;28;20377;-79
2022/08/27 04:12:10;;;;;;;;;;;23.20;61.20;;;;;;5020527;28;19984;-79
2022/08/27 04:14:36;;;;;;;;;;;23.30;61.00;;;;;;5023698;28;20620;-79
2022/08/27 04:17:02;;;;;;;;;;;23.30;60.90;;;;;;5022546;28;19955;-78
2022/08/27 04:19:29;;;;;;;;;;;23.40;60.60;;;;;;5023148;28;19914;-79
2022/08/27 04:22:01;;;;;;;;;;;23.50;60.30;;;;;;5024209;28;19917;-79
2022/08/27 04:24:28;;;;;;;;;;;23.60;60.00;;;;;;5020960;28;19912;-78
2022/08/27 04:26:54;;;;;;;;;;;23.70;59.80;;;;;;5022158;28;20244;-80
2022/08/27 04:29:19;;;;;;;;;;;23.70;59.70;;;;;;5020053;28;19916;-81
2022/08/27 04:31:45;;;;;;;;;;;23.80;59.60;;;;;;5019675;28;20287;-80
2022/08/27 04:34:11;;;;;;;;;;;23.90;60.20;;;;;;5021459;28;19929;-81
2022/08/27 04:36:36;;;;;;;;;;;24.20;59.40;;;;;;5018806;28;19910;-80
2022/08/27 04:39:02;;;;;;;;;;;24.50;58.80;;;;;;5019316;28;19913;-80
2022/08/27 04:41:32;;;;;;;;;;;25.00;58.20;;;;;;5001396;28;19959;-79
2022/08/27 04:44:01;;;;;;;;;;;25.50;57.90;;;;;;5020390;28;19936;-79
2022/08/27 04:46:31;;;;;;;;;;;26.00;56.80;;;;;;5001581;28;19968;-79
2022/08/27 04:48:58;;;;;;;;;;;26.40;55.60;;;;;;5002781;28;19905;-79
2022/08/27 04:51:24;;;;;;;;;;;26.70;54.50;;;;;;5019681;28;20004;-79
2022/08/27 04:53:50;;;;;;;;;;;26.90;53.80;;;;;;5001252;28;19941;-80
2022/08/27 04:56:17;;;;;;;;;;;27.20;53.20;;;;;;5019210;28;19909;-78
2022/08/27 04:58:43;;;;;;;;;;;27.50;52.90;;;;;;5018403;28;19948;-78
2022/08/27 05:01:14;;;;;;;;;;;27.90;52.10;;;;;;5018990;28;19913;-78
2022/08/27 05:03:39;;;;;;;;;;;28.30;51.70;;;;;;5016202;28;19909;-77
2022/08/27 05:06:05;;;;;;;;;;;28.50;50.70;;;;;;5018966;28;19928;-78
2022/08/27 05:08:32;;;;;;;;;;;28.70;49.90;;;;;;5015348;28;20359;-79
2022/08/27 05:10:59;;;;;;;;;;;28.80;49.80;;;;;;5002396;28;20248;-79
2022/08/27 05:13:25;;;;;;;;;;;29.00;49.80;;;;;;5013469;28;19921;-81
2022/08/27 05:15:57;;;;;;;;;;;29.10;47.90;;;;;;5015562;28;19928;-80
2022/08/27 05:18:23;;;;;;;;;;;29.10;48.20;;;;;;5015675;28;20354;-80
2022/08/27 05:20:49;;;;;;;;;;;29.60;48.30;;;;;;5014670;28;19956;-79
2022/08/27 05:23:16;;;;;;;;;;;29.90;47.30;;;;;;5015074;28;20307;-80
2022/08/27 05:25:44;;;;;;;;;;;30.40;47.50;;;;;;5014835;28;19934;-80
2022/08/27 05:28:10;;;;;;;;;;;30.90;46.90;;;;;;5014119;28;19909;-81
2022/08/27 05:30:40;;;;;;;;;;;31.20;46.80;;;;;;5014005;28;20696;-79
2022/08/27 05:33:06;;;;;;;;;;;31.50;45.60;;;;;;5016378;28;19944;-80
2022/08/27 05:35:32;;;;;;;;;;;31.60;44.60;;;;;;5014919;28;19910;-79
2022/08/27 05:37:59;;;;;;;;;;;31.90;44.60;;;;;;5014835;28;19959;-80
2022/08/27 05:40:25;;;;;;;;;;;32.80;44.80;;;;;;5014912;28;19913;-80
2022/08/27 05:42:50;;;;;;;;;;;33.60;43.90;;;;;;4997085;28;19905;-81
2022/08/27 05:45:16;;;;;;;;;;;34.80;42.40;;;;;;5013621;28;19954;-79
2022/08/27 05:47:42;;;;;;;;;;;;;;;;;;5013572;28;19972;-80
2022/08/27 05:50:08;;;;;;;;;;;35.80;41.40;;;;;;5016287;28;20370;-82
2022/08/27 05:52:34;;;;;;;;;;;36.30;40.70;;;;;;5014537;28;19909;-81
2022/08/27 05:55:00;;;;;;;;;;;36.80;40.10;;;;;;5014318;28;19928;-82
2022/08/27 05:57:26;;;;;;;;;;;37.00;39.20;;;;;;5013947;28;19912;-79
2022/08/27 06:02:36;;;;;;;;;;;37.40;38.80;;;;;;5013673;28;20046;-79
2022/08/27 06:05:02;;;;;;;;;;;37.70;38.40;;;;;;5014211;28;20390;-81
2022/08/27 06:07:28;;;;;;;;;;;38.20;38.60;;;;;;5014059;28;19959;-79
2022/08/27 06:09:55;;;;;;;;;;;38.30;37.30;;;;;;5013424;28;19909;-81
2022/08/27 06:12:20;;;;;;;;;;;38.30;37.70;;;;;;5013971;28;19961;-80
2022/08/27 06:14:46;;;;;;;;;;;38.10;37.00;;;;;;5013353;28;20393;-81
2022/08/27 06:17:11;;;;;;;;;;;38.10;36.80;;;;;;5012974;28;19913;-80
2022/08/27 06:19:37;;;;;;;;;;;37.80;35.90;;;;;;5014070;28;19917;-81
2022/08/27 06:22:03;;;;;;;;;;;37.30;35.90;;;;;;5014191;28;19955;-81
2022/08/27 06:24:29;;;;;;;;;;;37.10;36.50;;;;;;5014235;28;19916;-80
2022/08/27 06:26:56;;;;;;;;;;;37.20;36.80;;;;;;5014028;28;19905;-82
2022/08/27 06:29:22;;;;;;;;;;;37.40;36.30;;;;;;5014479;28;19909;-83
2022/08/27 06:31:49;;;;;;;;;;;37.40;36.10;;;;;;4997017;28;19916;-81
2022/08/27 06:34:14;;;;;;;;;;;37.60;36.20;;;;;;5013569;28;19905;-80
2022/08/27 06:36:41;;;;;;;;;;;37.30;35.50;;;;;;5013741;28;20286;-80
2022/08/27 06:39:07;;;;;;;;;;;37.10;35.80;;;;;;5014141;28;19924;-80
2022/08/27 06:41:33;;;;;;;;;;;36.70;35.70;;;;;;4999124;28;20374;-79
2022/08/27 06:43:59;;;;;;;;;;;36.40;35.40;;;;;;5016296;28;19910;-78
2022/08/27 06:46:26;;;;;;;;;;;35.90;35.70;;;;;;5016982;28;19963;-81
2022/08/27 06:48:52;;;;;;;;;;;35.60;35.90;;;;;;5013165;28;19941;-80
2022/08/27 06:51:24;;;;;;;;;;;35.50;36.10;;;;;;5014566;28;19906;-79
2022/08/27 06:53:51;;;;;;;;;;;35.70;36.40;;;;;;5015603;28;19906;-79
2022/08/27 06:56:17;;;;;;;;;;;36.00;36.30;;;;;;5014876;28;19909;-80
2022/08/27 06:58:43;;;;;;;;;;;36.40;36.10;;;;;;5014912;28;19916;-80
2022/08/27 07:01:14;;;;;;;;;;;36.80;35.90;;;;;;5001116;28;19920;-81
2022/08/27 07:03:40;;;;;;;;;;;37.30;35.50;;;;;;4997783;28;19953;-81
2022/08/27 07:06:06;;;;;;;;;;;37.80;35.20;;;;;;4997297;28;19913;-81
2022/08/27 07:08:32;;;;;;;;;;;38.20;34.70;;;;;;4990149;28;19910;-80
2022/08/27 07:10:58;;;;;;;;;;;38.60;34.50;;;;;;5013930;28;19906;-80
2022/08/27 07:13:24;;;;;;;;;;;;;;;;;;5013189;28;19905;-81
2022/08/27 07:15:50;;;;;;;;;;;;;;;;;;5013357;28;19915;-80
2022/08/27 07:18:16;;;;;;;;;;;;;;;;;;4995446;28;20292;-79
2022/08/27 07:20:43;;;;;;;;;;;;;;;;;;5012141;28;19921;-79
2022/08/27 07:23:09;;;;;;;;;;;39.10;34.20;;;;;;5013441;28;19963;-81
2022/08/27 07:25:35;;;;;;;;;;;42.20;33.00;;;;;;4995646;28;19905;-82
2022/08/27 07:28:04;;;;;;;;;;;;;;;;;;5014825;28;20321;-82
2022/08/27 07:30:30;;;;;;;;;;;;;;;;;;5014312;28;20370;-82
2022/08/27 07:32:56;;;;;;;;;;;;;;;;;;5013382;28;19912;-83
2022/08/27 07:35:21;;;;;;;;;;;;;;;;;;5013786;28;20319;-83
2022/08/27 07:37:47;;;;;;;;;;;;;;;;;;5014107;28;19964;-81
2022/08/27 07:40:13;;;;;;;;;;;;;;;;;;5014200;28;20216;-80
2022/08/27 07:45:38;;;;;;;;;;;;;;;;;;4977758;28;19909;-81
2022/08/27 07:48:04;;;;;;;;;;;;;;;;;;5013524;28;19925;-83
2022/08/27 07:50:29;;;;;;;;;;;;;;;;;;4995617;28;19963;-80
2022/08/27 07:52:55;;;;;;;;;;;;;;;;;;5022306;28;19913;-82
2022/08/27 07:55:21;;;;;;;;;;;42.40;32.90;;;;;;4995472;28;19917;-81
2022/08/27 07:57:47;;;;;;;;;;;43.10;30.20;;;;;;5013231;28;19909;-81
2022/08/27 08:00:13;;;;;;;;;;;43.00;29.80;;;;;;5012356;28;19928;-81
2022/08/27 08:02:40;;;;;;;;;;;43.00;29.80;;;;;;5012130;28;19955;-81
2022/08/27 08:05:07;;;;;;;;;;;42.80;29.60;;;;;;4994765;28;19940;-80
2022/08/27 08:07:33;;;;;;;;;;;42.60;29.50;;;;;;5012605;28;20397;-80
2022/08/27 08:09:58;;;;;;;;;;;42.50;29.60;;;;;;5011872;28;19912;-80
2022/08/27 08:12:25;;;;;;;;;;;42.40;29.40;;;;;;5006135;28;19910;-82
2022/08/27 08:14:54;;;;;;;;;;;42.40;29.60;;;;;;5013044;28;19905;-80
2022/08/27 08:17:20;;;;;;;;;;;42.60;29.40;;;;;;5013494;28;19952;-82
2022/08/27 08:19:47;;;;;;;;;;;42.90;29.20;;;;;;4988315;28;20495;-83
2022/08/27 08:22:13;;;;;;;;;;;43.30;29.00;;;;;;5010822;28;19905;-83
2022/08/27 08:24:39;;;;;;;;;;;43.40;28.90;;;;;;4987995;28;20389;-82
2022/08/27 08:27:05;;;;;;;;;;;43.40;28.70;;;;;;4995638;28;19909;-81
2022/08/27 08:29:30;;;;;;;;;;;43.40;28.90;;;;;;4993848;28;20256;-81
2022/08/27 08:31:56;;;;;;;;;;;43.30;28.80;;;;;;5012866;28;19923;-80
2022/08/27 08:34:22;;;;;;;;;;;43.40;28.60;;;;;;5011122;28;19909;-81
2022/08/27 08:36:47;;;;;;;;;;;43.50;28.60;;;;;;5011997;28;19905;-81
2022/08/27 08:39:13;;;;;;;;;;;43.60;28.60;;;;;;5014875;28;19915;-81
2022/08/27 08:41:47;;;;;;;;;;;43.90;28.40;;;;;;4998089;28;19952;-81
2022/08/27 08:44:23;;;;;;;;;;;44.20;28.20;;;;;;4992731;28;19918;-79
2022/08/27 08:46:55;;;;;;;;;;;44.60;28.80;;;;;;5016640;28;19918;-80
2022/08/27 08:49:20;;;;;;;;;;;45.20;27.80;;;;;;5016983;28;19909;-85
2022/08/27 08:51:53;;;;;;;;;;;45.50;27.80;;;;;;5015650;28;20303;-79
2022/08/27 08:54:20;;;;;;;;;;;45.60;27.30;;;;;;5015400;28;20344;-80
2022/08/27 08:57:02;;;;;;;;;;;45.50;26.90;;;;;;5012575;28;19905;-79
2022/08/27 08:59:28;;;;;;;;;;;;;;;;;;5006188;28;19921;-80
2022/08/27 09:01:54;;;;;;;;;;;;;;;;;;5007170;28;19906;-83
2022/08/27 09:04:20;;;;;;;;;;;;;;;;;;5015554;28;19957;-81
2022/08/27 09:06:47;;;;;;;;;;;;;;;;;;4986653;28;19905;-82
2022/08/27 09:09:13;;;;;;;;;;;;;;;;;;5014406;28;19906;-79
2022/08/27 09:11:39;;;;;;;;;;;;;;;;;;5017326;28;19913;-82
2022/08/27 09:14:13;;;;;;;;;;;45.60;27.10;;;;;;5006773;28;19905;-82
2022/08/27 09:16:38;;;;;;;;;;;46.90;26.00;;;;;;5015739;28;19967;-81
2022/08/27 09:19:05;;;;;;;;;;;46.90;26.00;;;;;;5015231;28;19921;-83
2022/08/27 09:21:35;;;;;;;;;;;46.90;25.90;;;;;;5015428;28;19913;-79
2022/08/27 09:24:01;;;;;;;;;;;46.90;25.70;;;;;;5014983;28;19912;-80
2022/08/27 09:26:31;;;;;;;;;;;46.70;25.90;;;;;;5015026;28;20000;-79
2022/08/27 09:29:15;;;;;;;;;;;46.60;26.00;;;;;;5017148;28;19909;-77
2022/08/27 09:31:44;;;;;;;;;;;46.30;25.90;;;;;;5007134;28;19921;-79
2022/08/27 09:34:10;;;;;;;;;;;46.20;25.90;;;;;;5015808;28;19912;-81
2022/08/27 09:36:47;;;;;;;;;;;45.90;25.90;;;;;;5015074;28;19905;-80
2022/08/27 09:39:13;;;;;;;;;;;45.80;25.90;;;;;;5015125;28;19983;-80
2022/08/27 09:41:44;;;;;;;;;;;45.60;25.80;;;;;;5015598;28;20367;-86
2022/08/27 09:44:11;;;;;;;;;;;45.50;25.90;;;;;;5017457;28;19929;-84
2022/08/27 09:46:36;;;;;;;;;;;45.50;26.10;;;;;;5016607;28;20390;-85
2022/08/27 09:49:09;;;;;;;;;;;45.70;26.80;;;;;;5017400;28;19905;-83
2022/08/27 09:51:38;;;;;;;;;;;45.40;25.70;;;;;;5010938;28;19948;-84
2022/08/27 09:54:06;;;;;;;;;;;45.20;26.00;;;;;;5017533;28;19906;-83
2022/08/27 09:56:34;;;;;;;;;;;45.60;26.20;;;;;;5021400;28;19927;-83
2022/08/27 09:59:02;;;;;;;;;;;46.20;26.00;;;;;;5019085;28;19909;-82
2022/08/27 10:01:30;;;;;;;;;;;46.00;25.50;;;;;;5025758;28;19916;-81
2022/08/27 10:04:06;;;;;;;;;;;45.60;25.80;;;;;;5013935;28;20367;-83
2022/08/27 10:06:32;;;;;;;;;;;45.90;25.80;;;;;;5008558;28;19931;-84
2022/08/27 10:09:12;;;;;;;;;;;46.00;25.90;;;;;;5015146;28;19995;-86
2022/08/27 10:11:38;;;;;;;;;;;;;;;;;;5019866;28;19987;-81
2022/08/27 10:14:04;;;;;;;;;;;;;;;;;;5023078;28;20363;-83
2022/08/27 10:16:32;;;;;;;;;;;;;;;;;;5007799;28;19973;-87
2022/08/27 10:18:58;;;;;;;;;;;;;;;;;;5021088;28;19913;-88
2022/08/27 10:21:24;;;;;;;;;;;;;;;;;;5000134;28;19906;-85
2022/08/27 10:24:10;;;;;;;;;;;42.60;26.00;;;;;;5019254;28;19909;-85
2022/08/27 10:26:40;;;;;;;;;;;42.00;26.10;;;;;;4993220;28;19905;-84
2022/08/27 10:29:05;;;;;;;;;;;40.40;26.60;;;;;;5019981;28;19905;-86
2022/08/27 10:31:40;;;;;;;;;;;39.00;27.30;;;;;;5019662;28;19909;-87
2022/08/27 10:34:35;;;;;;;;;;;38.10;27.60;;;;;;5020150;28;19905;-85
2022/08/27 10:37:04;;;;;;;;;;;38.00;28.20;;;;;;5000167;28;19906;-86
2022/08/27 10:39:49;;;;;;;;;;;37.60;28.50;;;;;;4998597;28;19913;-85
2022/08/27 10:42:25;;;;;;;;;;;37.20;28.60;;;;;;5016937;28;20260;-87
2022/08/27 10:44:59;;;;;;;;;;;36.90;29.00;;;;;;5019300;28;19910;-86
2022/08/27 10:47:45;;;;;;;;;;;36.50;29.30;;;;;;4999215;28;20375;-84
2022/08/27 10:50:24;;;;;;;;;;;36.10;29.50;;;;;;4999894;28;20298;-84
2022/08/27 10:52:51;;;;;;;;;;;35.70;29.90;;;;;;5006083;28;19909;-86
2022/08/27 10:55:20;;;;;;;;;;;35.50;30.10;;;;;;5015316;28;19937;-85
2022/08/27 10:57:58;;;;;;;;;;;35.50;30.10;;;;;;5014550;28;19909;-86
2022/08/27 11:00:28;;;;;;;;;;;35.60;30.20;;;;;;5015475;28;19956;-87
2022/08/27 11:02:57;;;;;;;;;;;35.60;30.20;;;;;;5000090;28;20294;-87
2022/08/27 11:05:25;;;;;;;;;;;35.40;30.40;;;;;;5029081;28;20011;-89
2022/08/27 11:07:54;;;;;;;;;;;35.20;30.70;;;;;;5019337;28;19905;-88
2022/08/27 11:10:26;;;;;;;;;;;35.00;31.50;;;;;;5013007;28;19909;-84
2022/08/27 11:12:54;;;;;;;;;;;34.60;31.00;;;;;;5018800;28;19955;-84
2022/08/27 11:15:23;;;;;;;;;;;34.20;31.20;;;;;;5014858;28;20343;-85
2022/08/27 11:18:14;;;;;;;;;;;33.70;31.40;;;;;;5014972;28;19992;-85
2022/08/27 11:20:46;;;;;;;;;;;33.50;31.60;;;;;;5020561;28;19959;-84
2022/08/27 11:23:32;;;;;;;;;;;33.30;31.40;;;;;;5009861;28;19916;-83
2022/08/27 11:26:04;;;;;;;;;;;33.00;31.90;;;;;;5017431;28;19916;-83
2022/08/27 11:28:37;;;;;;;;;;;32.90;33.10;;;;;;5024757;28;20271;-83
2022/08/27 11:31:09;;;;;;;;;;;33.00;32.50;;;;;;5005815;28;19912;-83
2022/08/27 11:33:58;;;;;;;;;;;33.20;32.90;;;;;;5014655;28;19906;-83
2022/08/27 11:36:39;;;;;;;;;;;33.00;33.50;;;;;;4986464;28;19920;-83
2022/08/27 11:39:18;;;;;;;;;;;32.80;33.40;;;;;;5026180;28;19912;-82
2022/08/27 11:42:00;;;;;;;;;;;33.00;33.70;;;;;;5019601;28;19909;-85
2022/08/27 11:44:27;;;;;;;;;;;32.90;33.60;;;;;;5010894;28;19983;-83
2022/08/27 11:46:55;;;;;;;;;;;33.00;33.60;;;;;;5014044;28;20303;-83
2022/08/27 11:49:33;;;;;;;;;;;32.90;33.80;;;;;;4996611;28;20287;-83
2022/08/27 11:52:01;;;;;;;;;;;32.80;33.70;;;;;;4992795;28;19960;-83
2022/08/27 11:54:43;;;;;;;;;;;32.80;34.40;;;;;;4987163;28;19967;-83
2022/08/27 11:57:39;;;;;;;;;;;32.70;33.90;;;;;;5015326;28;19910;-82
2022/08/27 12:00:23;;;;;;;;;;;32.80;34.00;;;;;;5000599;28;19914;-81
2022/08/27 12:02:56;;;;;;;;;;;32.80;33.70;;;;;;5014760;28;19959;-83
2022/08/27 12:05:31;;;;;;;;;;;32.80;33.70;;;;;;4991167;28;20382;-82
2022/08/27 12:07:58;;;;;;;;;;;33.00;33.50;;;;;;5012031;28;19961;-81
2022/08/27 12:10:42;;;;;;;;;;;33.10;33.20;;;;;;5015774;28;19932;-80
2022/08/27 12:13:08;;;;;;;;;;;33.00;33.20;;;;;;5017140;28;20424;-86
2022/08/27 12:16:00;;;;;;;;;;;33.10;33.20;;;;;;5020015;28;19906;-83
2022/08/27 12:18:28;;;;;;;;;;;33.00;33.30;;;;;;4988695;28;19995;-84
2022/08/27 12:21:03;;;;;;;;;;;33.00;33.30;;;;;;5012846;28;19913;-86
2022/08/27 12:23:42;;;;;;;;;;;32.90;33.40;;;;;;5010870;28;20047;-83
2022/08/27 12:26:26;;;;;;;;;;;33.10;33.50;;;;;;5021186;28;19913;-83
2022/08/27 12:29:15;;;;;;;;;;;33.10;33.20;;;;;;5020230;28;19905;-83
2022/08/27 12:31:43;;;;;;;;;;;33.00;33.00;;;;;;5020685;28;19944;-82
2022/08/27 12:34:17;;;;;;;;;;;32.80;33.10;;;;;;5018427;28;20208;-81
2022/08/27 12:36:43;;;;;;;;;;;32.60;33.20;;;;;;5017298;28;19906;-82
2022/08/27 12:39:15;;;;;;;;;;;32.40;33.20;;;;;;5017235;28;20281;-82
2022/08/27 12:41:44;;;;;;;;;;;32.40;33.40;;;;;;5017170;28;19936;-82
2022/08/27 12:44:12;;;;;;;;;;;32.50;34.00;;;;;;5017087;28;19905;-81
2022/08/27 12:46:44;;;;;;;;;;;32.70;33.30;;;;;;5007363;28;19918;-86
2022/08/27 12:49:10;;;;;;;;;;;32.70;33.10;;;;;;5018017;28;19905;-85
2022/08/27 12:51:36;;;;;;;;;;;32.60;32.90;;;;;;5017318;28;19962;-84
2022/08/27 12:54:05;;;;;;;;;;;32.50;32.80;;;;;;5017133;28;19932;-83
2022/08/27 12:56:49;;;;;;;;;;;32.60;32.90;;;;;;5019420;28;19912;-84
2022/08/27 12:59:28;;;;;;;;;;;32.70;32.90;;;;;;5015519;28;20297;-84
2022/08/27 13:02:12;;;;;;;;;;;32.90;32.90;;;;;;5017455;28;19955;-85
2022/08/27 13:04:39;;;;;;;;;;;33.00;32.90;;;;;;5006428;28;19910;-80
2022/08/27 13:07:05;;;;;;;;;;;33.10;32.70;;;;;;4994623;28;19906;-81
2022/08/27 13:09:35;;;;;;;;;;;33.10;32.50;;;;;;5016336;28;19916;-79
2022/08/27 13:12:02;;;;;;;;;;;33.10;32.10;;;;;;5015578;28;19914;-82
2022/08/27 13:14:34;;;;;;;;;;;32.90;32.10;;;;;;5018125;28;19905;-83
2022/08/27 13:17:05;;;;;;;;;;;32.80;32.30;;;;;;5029508;28;19905;-82
2022/08/27 13:19:33;;;;;;;;;;;32.70;32.30;;;;;;5018634;28;19909;-80
2022/08/27 13:22:00;;;;;;;;;;;32.60;32.50;;;;;;5017042;28;19922;-80
2022/08/27 13:24:33;;;;;;;;;;;32.50;32.70;;;;;;5016996;28;19905;-82
2022/08/27 13:27:01;;;;;;;;;;;32.50;32.80;;;;;;4998908;28;19955;-81
2022/08/27 13:29:27;;;;;;;;;;;32.50;32.80;;;;;;5016259;28;19909;-82
2022/08/27 13:31:53;;;;;;;;;;;32.50;32.90;;;;;;5016475;28;19905;-80
2022/08/27 13:34:21;;;;;;;;;;;32.30;32.90;;;;;;5016498;28;19909;-81
2022/08/27 13:36:56;;;;;;;;;;;32.30;33.00;;;;;;4997882;28;19918;-80
2022/08/27 13:39:22;;;;;;;;;;;32.20;33.10;;;;;;5015643;28;19916;-83
2022/08/27 13:41:48;;;;;;;;;;;32.30;33.20;;;;;;5019354;28;19906;-80
2022/08/27 13:44:24;;;;;;;;;;;32.30;33.40;;;;;;5015183;28;19928;-80
2022/08/27 13:46:52;;;;;;;;;;;32.30;33.20;;;;;;5014812;28;20284;-79
2022/08/27 13:49:21;;;;;;;;;;;32.30;33.20;;;;;;5015030;28;19905;-79
2022/08/27 13:51:47;;;;;;;;;;;32.30;33.00;;;;;;5016334;28;20012;-78
2022/08/27 13:54:14;;;;;;;;;;;32.20;32.80;;;;;;5016797;28;20433;-79
2022/08/27 13:56:46;;;;;;;;;;;32.20;32.70;;;;;;5007663;28;19909;-80
2022/08/27 13:59:13;;;;;;;;;;;32.20;32.80;;;;;;5015579;28;19956;-83
2022/08/27 14:01:53;;;;;;;;;;;32.10;32.80;;;;;;5015404;28;19918;-84
2022/08/27 14:04:21;;;;;;;;;;;32.00;32.70;;;;;;5009218;28;19909;-81
2022/08/27 14:06:47;;;;;;;;;;;32.00;32.60;;;;;;5015677;28;20370;-81
2022/08/27 14:09:22;;;;;;;;;;;31.90;32.70;;;;;;5007337;28;19905;-82
2022/08/27 14:11:56;;;;;;;;;;;32.00;32.80;;;;;;5008309;28;19995;-80
2022/08/27 14:14:21;;;;;;;;;;;32.30;32.60;;;;;;5005011;28;19992;-79
2022/08/27 14:16:55;;;;;;;;;;;32.40;32.60;;;;;;5014973;28;19936;-81
2022/08/27 14:19:25;;;;;;;;;;;32.30;32.50;;;;;;5013458;28;19943;-80
2022/08/27 14:21:51;;;;;;;;;;;32.20;32.50;;;;;;5014892;28;19913;-80
2022/08/27 14:24:16;;;;;;;;;;;32.10;32.60;;;;;;5014809;28;20294;-81
2022/08/27 14:26:42;;;;;;;;;;;32.00;33.20;;;;;;5014558;28;20351;-82
2022/08/27 14:29:08;;;;;;;;;;;31.90;32.60;;;;;;5015134;28;19906;-82
2022/08/27 14:31:33;;;;;;;;;;;31.80;32.60;;;;;;5021967;28;19912;-82
2022/08/27 14:33:59;;;;;;;;;;;31.70;33.10;;;;;;5018935;28;20393;-83
2022/08/27 14:36:27;;;;;;;;;;;31.60;33.00;;;;;;5015190;28;19945;-80
2022/08/27 14:38:52;;;;;;;;;;;31.50;33.10;;;;;;5004420;28;19912;-82
2022/08/27 14:41:19;;;;;;;;;;;31.40;33.40;;;;;;5018275;28;20378;-83
2022/08/27 14:43:45;;;;;;;;;;;31.40;33.50;;;;;;5014766;28;19911;-84